Hovedside
METAR-TAF:

METAR-TAF

Lufthavner :

Kramfors lufthavn

Kramfors, Sverige

breddegrad: 63-03N, lengdegrad: 017-46E, høyde over havet: 10 m

Gjeldene værobservasjon

Denne rapporten ble laget for 35 minutter siden, klokken 10:20 UTC
Vind 12 kt fra Sør-sørøst
Temperatur 13°C
Luftfuktighet 62%
Trykk 998 hPa
Sikt 10 km eller mer

METAR: ESNK 211020Z AUTO 16012KT 9999 BKN061/// OVC082/// 13/06 Q0998

Tid: 12:55 (10:55 UTC)

Varsel

Denne rapporten ble laget for 5 timer og 25 minutter siden, klokken 05:30 UTC
Varsel gyldig fra 21. klokken 05 UTC til 21. klokken 09 UTC
Vind 5 kt fra Sør
Sikt 10 km eller mer
ingen skyer under 1500 m og ingen bygeskyer

TAF: ESNK 210530Z 2105/2109 17005KT CAVOK

Værobservasjoner og værvarsel for over 4000 flyplasser (METAR- og TAF-rapporter).

Tilgjengelige stasjoner er representert av de røde og gule prikkene på kartet.

Hold musepekeren over prikken for å se navnet på stasjonen.

Klikk så for å se værobservasjoner og -varsler.

For å forandre kartet kan du klikke på den grønne knappen med svart kryss for å zoome inn, på den grønne knappen med strek for å zoome ut, eller på de grønne pilene for å se tilstøtende kart.


METAR-TAF: